»·PEaware :: N901TX U92-KLAS

N901TX :: U92-KLAS

FLIGHT INFORMATION

Flight Status: Arrived
Operator: Privately registered:
United States
More flights under this callsign
Pilot: Andrew J. (13363)
Aircraft: SOCATA TBM-900
(TBM9)
More flights by this aircraft type
Origin: U92 Antelope Valley
United States
Destination: KLAS McCarran Intl
United States
More flights between these airports :: More routes between these airports
Route: PROXI Q842 PICHO MLF LUXOR2
File this flight plan on PilotEdge
Remarks:
Altitude:
(Current/Filed)
30,000ft
Speed:
(Current/Filed)
310kts
Departed: 08-Aug-18 06:38 PM
Arrived: 08-Aug-18 08:25 PM
Distance/Time
Traveled:
460nm/1:46
Distance/Time
To Go:
Arrived

Flight Plot

Page will automatically refresh every two minutes.

Flight plan parsing failed; only flown route is shown


Map Options




Map Legend


Flown Route
Filed Route
Departure Airport
Arrival Airport
Navaid (VOR, NDB)
Fix

Horizontal Profiles

Position Reports

Time Latitude Longitude Heading Altitude Ground
Speed
08-Aug-18 18:38 43.677841 -113.595901 229 6183ft 0kts
08-Aug-18 18:39 43.677362 -113.597482 248 6183ft 53kts
08-Aug-18 18:40 43.654744 -113.611935 134 7708ft 131kts
08-Aug-18 18:41 43.618033 -113.584028 142 9182ft 158kts
08-Aug-18 18:42 43.581917 -113.548349 141 10802ft 163kts
08-Aug-18 18:43 43.542964 -113.515490 153 12328ft 167kts
08-Aug-18 18:44 43.500179 -113.487576 154 14059ft 174kts
08-Aug-18 18:45 43.456001 -113.459018 154 15880ft 179kts
08-Aug-18 18:46 43.410154 -113.429433 155 17690ft 186kts
08-Aug-18 18:47 43.362856 -113.398964 155 19467ft 192kts
08-Aug-18 18:48 43.313855 -113.367455 155 21089ft 198kts
08-Aug-18 18:49 43.264864 -113.336007 156 22525ft 204kts
08-Aug-18 18:50 43.213004 -113.302779 156 23955ft 210kts
08-Aug-18 18:51 43.159852 -113.268786 157 25377ft 214kts
08-Aug-18 18:52 43.105389 -113.234024 157 26671ft 220kts
08-Aug-18 18:53 43.049673 -113.198536 157 27862ft 224kts
08-Aug-18 18:54 42.992840 -113.162445 157 28946ft 229kts
08-Aug-18 18:55 42.932683 -113.124307 155 29598ft 250kts
08-Aug-18 18:56 42.868605 -113.083735 154 30136ft 265kts
08-Aug-18 18:57 42.798620 -113.039507 154 30164ft 290kts
08-Aug-18 18:58 42.724080 -112.992570 154 30159ft 303kts
08-Aug-18 18:59 42.646634 -112.943926 154 30157ft 309kts
08-Aug-18 19:00 42.564718 -112.910822 167 30156ft 312kts
08-Aug-18 19:01 42.479923 -112.885713 167 30156ft 313kts
08-Aug-18 19:02 42.395188 -112.860653 167 30156ft 313kts
08-Aug-18 19:03 42.310254 -112.835607 167 30152ft 313kts
08-Aug-18 19:04 42.225377 -112.810640 167 30154ft 313kts
08-Aug-18 19:05 42.140386 -112.785707 167 30156ft 313kts
08-Aug-18 19:06 42.055807 -112.760965 167 30149ft 313kts
08-Aug-18 19:07 41.970953 -112.736213 167 30132ft 313kts
08-Aug-18 19:08 41.893839 -112.713772 167 30128ft 314kts
08-Aug-18 19:09 41.819809 -112.692294 167 30126ft 313kts
08-Aug-18 19:10 41.734883 -112.667706 167 30127ft 313kts
08-Aug-18 19:11 41.650094 -112.643223 167 30128ft 314kts
08-Aug-18 19:12 41.564700 -112.618634 167 30127ft 314kts
08-Aug-18 19:13 41.479204 -112.594084 167 30129ft 315kts
08-Aug-18 19:14 41.393546 -112.569548 167 30128ft 316kts
08-Aug-18 19:15 41.307793 -112.545058 167 30130ft 316kts
08-Aug-18 19:16 41.221150 -112.535216 182 30129ft 315kts
08-Aug-18 19:17 41.133618 -112.538545 182 30128ft 315kts
08-Aug-18 19:18 41.045922 -112.541961 181 30129ft 317kts
08-Aug-18 19:19 40.957873 -112.545409 181 30131ft 319kts
08-Aug-18 19:20 40.869885 -112.548804 181 30126ft 321kts
08-Aug-18 19:21 40.780950 -112.552245 181 30126ft 321kts
08-Aug-18 19:22 40.691828 -112.555679 181 30127ft 321kts
08-Aug-18 19:23 40.602913 -112.559105 181 30127ft 322kts
08-Aug-18 19:24 40.513523 -112.562535 181 30128ft 322kts
08-Aug-18 19:25 40.424201 -112.565959 181 30128ft 322kts
08-Aug-18 19:26 40.335189 -112.569356 181 30129ft 322kts
08-Aug-18 19:27 40.245692 -112.572765 181 30129ft 322kts
08-Aug-18 19:28 40.156493 -112.576150 181 30130ft 322kts
08-Aug-18 19:29 40.066798 -112.579547 181 30134ft 323kts
08-Aug-18 19:30 39.977769 -112.582892 181 30140ft 322kts
08-Aug-18 19:31 39.890698 -112.604133 192 30137ft 322kts
08-Aug-18 19:32 39.803382 -112.627967 192 30134ft 321kts
08-Aug-18 19:33 39.716064 -112.651742 192 30136ft 321kts
08-Aug-18 19:34 39.629045 -112.675371 192 30136ft 321kts
08-Aug-18 19:35 39.541825 -112.699003 192 30136ft 321kts
08-Aug-18 19:36 39.454313 -112.722650 192 30137ft 321kts
08-Aug-18 19:37 39.367057 -112.746169 192 30137ft 322kts
08-Aug-18 19:38 39.279925 -112.769589 192 30138ft 322kts
08-Aug-18 19:39 39.192755 -112.792964 192 30139ft 322kts
08-Aug-18 19:40 39.105176 -112.816396 192 30139ft 322kts
08-Aug-18 19:41 39.017559 -112.839763 192 30138ft 322kts
08-Aug-18 19:42 38.929906 -112.863075 192 30134ft 322kts
08-Aug-18 19:43 38.844520 -112.885748 192 30125ft 320kts
08-Aug-18 19:44 38.758328 -112.908575 192 30125ft 317kts
08-Aug-18 19:45 38.672270 -112.931307 192 30126ft 315kts
08-Aug-18 19:46 38.586784 -112.953831 192 30127ft 315kts
08-Aug-18 19:47 38.515729 -112.972514 192 30128ft 314kts
08-Aug-18 19:48 38.416186 -112.998623 192 30128ft 314kts
08-Aug-18 19:49 38.346504 -113.021993 207 30130ft 311kts
08-Aug-18 19:50 38.255688 -113.077669 207 30129ft 311kts
08-Aug-18 19:51 38.191035 -113.117362 207 30132ft 311kts
08-Aug-18 19:52 38.100434 -113.172858 207 30149ft 311kts
08-Aug-18 19:53 38.022971 -113.220186 207 30167ft 311kts
08-Aug-18 19:54 37.958427 -113.259533 207 30174ft 311kts
08-Aug-18 19:55 37.881462 -113.306355 207 30171ft 311kts
08-Aug-18 19:56 37.791398 -113.361004 207 30171ft 311kts
08-Aug-18 19:57 37.726458 -113.400317 207 30172ft 311kts
08-Aug-18 19:58 37.648907 -113.447165 207 30172ft 311kts
08-Aug-18 19:59 37.571004 -113.494116 207 30152ft 311kts
08-Aug-18 20:00 37.492703 -113.541192 207 30036ft 314kts
08-Aug-18 20:01 37.414178 -113.588296 207 29953ft 314kts
08-Aug-18 20:02 37.335456 -113.635409 207 29953ft 312kts
08-Aug-18 20:03 37.261712 -113.679444 207 29955ft 311kts
08-Aug-18 20:04 37.180269 -113.727964 207 28797ft 340kts
08-Aug-18 20:05 37.093303 -113.779709 204 27357ft 353kts
08-Aug-18 20:06 37.003909 -113.832588 204 25730ft 360kts
08-Aug-18 20:07 36.913858 -113.885865 205 24059ft 360kts
08-Aug-18 20:08 36.826257 -113.937526 205 22409ft 358kts
08-Aug-18 20:09 36.737302 -113.989842 205 20717ft 354kts
08-Aug-18 20:10 36.651291 -114.040302 205 19002ft 333kts
08-Aug-18 20:11 36.573551 -114.094177 234 17571ft 319kts
08-Aug-18 20:12 36.529260 -114.186645 241 16204ft 313kts
08-Aug-18 20:13 36.486877 -114.279530 241 14836ft 311kts
08-Aug-18 20:14 36.444319 -114.372632 241 13468ft 310kts
08-Aug-18 20:15 36.402756 -114.463306 241 12130ft 298kts
08-Aug-18 20:16 36.346259 -114.527372 218 11982ft 265kts
08-Aug-18 20:17 36.289303 -114.582306 218 11294ft 277kts
08-Aug-18 20:18 36.240444 -114.653928 251 9557ft 293kts
08-Aug-18 20:19 36.214411 -114.747654 251 7814ft 295kts
08-Aug-18 20:20 36.188561 -114.841969 251 6252ft 290kts
08-Aug-18 20:21 36.164904 -114.930452 251 5881ft 266kts
08-Aug-18 20:22 36.151810 -115.018434 261 4619ft 253kts
08-Aug-18 20:23 36.144172 -115.096366 261 3634ft 199kts
08-Aug-18 20:24 36.129449 -115.140645 198 2878ft 124kts
08-Aug-18 20:25 36.101333 -115.155476 208 2204ft 100kts
08-Aug-18 20:26 36.089310 -115.163209 291 2144ft 5kts
08-Aug-18 20:27 36.091163 -115.163686 21 2144ft 20kts
08-Aug-18 20:28 36.097802 -115.160669 332 2144ft 12kts
08-Aug-18 20:29 36.098672 -115.160112 268 2144ft 0kts
08-Aug-18 20:30 36.098672 -115.160112 268 2144ft 0kts
08-Aug-18 20:31 36.098672 -115.160112 268 2144ft 0kts
08-Aug-18 20:32 36.098672 -115.160112 268 2144ft 0kts
08-Aug-18 20:33 36.098672 -115.160112 268 2144ft 0kts
08-Aug-18 20:34 36.098672 -115.160112 268 2144ft 0kts

Navigation Log

Ident Type
Flight plan parsing failed, navigation log unavailable